createdAt,value
2022-11-24T00:01:07.229Z,-0.41
2022-11-24T00:03:34.328Z,-0.47
2022-11-24T00:06:06.224Z,-0.49
2022-11-24T00:08:33.825Z,-0.56
2022-11-24T00:11:29.527Z,-0.57
2022-11-24T00:13:57.954Z,-0.55
2022-11-24T00:16:36.294Z,-0.55
2022-11-24T00:19:14.619Z,-0.54
2022-11-24T00:21:43.815Z,-0.68
2022-11-24T00:24:11.508Z,-0.60
2022-11-24T00:26:38.243Z,-0.55
2022-11-24T00:29:07.953Z,-0.52
2022-11-24T00:31:39.832Z,-0.55
2022-11-24T00:34:10.856Z,-0.47
2022-11-24T00:36:38.821Z,-0.68
2022-11-24T00:39:12.732Z,-0.48
2022-11-24T00:41:39.471Z,-0.47
2022-11-24T00:44:09.048Z,-0.58
2022-11-24T00:46:36.083Z,-0.81
2022-11-24T00:49:04.495Z,-0.59
2022-11-24T00:51:31.358Z,-0.74
2022-11-24T00:53:59.760Z,-0.66
2022-11-24T00:56:27.641Z,-0.70
2022-11-24T00:58:54.420Z,-1.01
2022-11-24T01:01:24.698Z,-0.95
2022-11-24T01:03:51.999Z,-1.04
2022-11-24T01:06:20.007Z,-1.01
2022-11-24T01:08:47.222Z,-1.09
2022-11-24T01:11:15.680Z,-1.12
2022-11-24T01:13:43.856Z,-1.24
2022-11-24T01:16:18.789Z,-1.18
2022-11-24T01:18:46.159Z,-1.27
2022-11-24T01:21:12.985Z,-1.21
2022-11-24T01:23:40.230Z,-1.19
2022-11-24T01:26:13.784Z,-1.27
2022-11-24T01:28:46.345Z,-1.56
2022-11-24T01:31:17.019Z,-1.43
2022-11-24T01:33:44.154Z,-1.63
2022-11-24T01:36:11.008Z,-1.63
2022-11-24T01:38:37.776Z,-1.48
2022-11-24T01:41:07.796Z,-1.64
2022-11-24T01:43:35.024Z,-1.53
2022-11-24T01:46:20.448Z,-1.46
2022-11-24T01:48:58.312Z,-1.59
2022-11-24T01:51:27.100Z,-1.46
2022-11-24T01:54:03.023Z,-1.67
2022-11-24T01:56:31.123Z,-1.61
2022-11-24T01:59:02.995Z,-1.57
2022-11-24T02:01:32.241Z,-1.78
2022-11-24T02:04:02.809Z,-1.63
2022-11-24T02:06:31.760Z,-1.55
2022-11-24T02:09:21.478Z,-1.66
2022-11-24T02:11:48.261Z,-1.59
2022-11-24T02:14:18.313Z,-1.55
2022-11-24T02:16:49.393Z,-1.47
2022-11-24T02:19:41.502Z,-1.51
2022-11-24T02:22:19.332Z,-1.55
2022-11-24T02:25:01.153Z,-1.54
2022-11-24T02:27:27.993Z,-1.76
2022-11-24T02:29:56.858Z,-1.80
2022-11-24T02:32:24.126Z,-1.87
2022-11-24T02:35:00.416Z,-1.75
2022-11-24T02:37:27.160Z,-1.81
2022-11-24T02:39:54.014Z,-1.78
2022-11-24T02:42:21.188Z,-1.78
2022-11-24T02:44:51.257Z,-1.74
2022-11-24T02:47:17.988Z,-1.75
2022-11-24T02:49:44.822Z,-1.73
2022-11-24T02:52:11.574Z,-1.77
2022-11-24T02:54:38.305Z,-1.72
2022-11-24T02:57:05.345Z,-1.82
2022-11-24T02:59:34.065Z,-1.80
2022-11-24T03:02:01.165Z,-1.82
2022-11-24T03:04:27.785Z,-1.76
2022-11-24T03:06:54.716Z,-1.73
2022-11-24T03:09:21.422Z,-1.70
2022-11-24T03:11:48.185Z,-1.77
2022-11-24T03:14:14.992Z,-1.60
2022-11-24T03:16:41.710Z,-1.79
2022-11-24T03:19:08.389Z,-1.54
2022-11-24T03:21:36.593Z,-1.55
2022-11-24T03:24:03.445Z,-1.57
2022-11-24T03:26:30.185Z,-1.74
2022-11-24T03:28:59.138Z,-1.66
2022-11-24T03:31:26.192Z,-1.72
2022-11-24T03:33:52.924Z,-1.66
2022-11-24T03:36:19.720Z,-1.56
2022-11-24T03:38:46.530Z,-1.70
2022-11-24T03:41:13.469Z,-1.46
2022-11-24T03:43:43.817Z,-1.45
2022-11-24T03:46:12.277Z,-1.44
2022-11-24T03:48:39.114Z,-1.51
2022-11-24T03:51:06.020Z,-1.41
2022-11-24T03:53:33.882Z,-1.51
2022-11-24T03:56:02.493Z,-1.39
2022-11-24T03:58:30.204Z,-1.39
2022-11-24T04:00:57.812Z,-1.37
2022-11-24T04:03:25.145Z,-1.34
2022-11-24T04:05:52.346Z,-1.29
2022-11-24T04:08:22.410Z,-1.27
2022-11-24T04:10:53.295Z,-1.22
2022-11-24T04:13:31.513Z,-1.23
2022-11-24T04:15:59.232Z,-1.34
2022-11-24T04:18:26.882Z,-1.32
2022-11-24T04:20:53.696Z,-1.25
2022-11-24T04:23:20.379Z,-1.28
2022-11-24T04:25:47.266Z,-1.19
2022-11-24T04:28:14.436Z,-1.21
2022-11-24T04:30:44.884Z,-1.20
2022-11-24T04:33:11.818Z,-1.24
2022-11-24T04:35:44.621Z,-1.30
2022-11-24T04:38:12.507Z,-1.23
2022-11-24T04:40:39.281Z,-1.28
2022-11-24T04:43:06.047Z,-1.34
2022-11-24T04:45:33.820Z,-1.29
2022-11-24T04:48:00.524Z,-1.29
2022-11-24T04:50:28.307Z,-1.27
2022-11-24T04:52:55.086Z,-1.19
2022-11-24T04:55:21.999Z,-1.09
2022-11-24T04:57:48.653Z,-1.14
2022-11-24T05:00:15.660Z,-1.06
2022-11-24T05:02:42.577Z,-0.94
2022-11-24T05:05:09.642Z,-1.03
2022-11-24T05:07:36.647Z,-0.84
2022-11-24T05:10:23.037Z,-0.86
2022-11-24T05:12:57.467Z,-0.85
2022-11-24T05:15:26.150Z,-0.83
2022-11-24T05:17:53.096Z,-0.90
2022-11-24T05:20:20.278Z,-1.03
2022-11-24T05:22:47.044Z,-1.04
2022-11-24T05:25:14.369Z,-1.00
2022-11-24T05:27:41.055Z,-1.02
2022-11-24T05:30:09.071Z,-0.99
2022-11-24T05:32:35.888Z,-0.95
2022-11-24T05:35:09.877Z,-0.95
2022-11-24T05:37:37.241Z,-0.92
2022-11-24T05:40:06.989Z,-0.96
2022-11-24T05:42:47.168Z,-1.02
2022-11-24T05:45:18.860Z,-0.91
2022-11-24T05:47:46.670Z,-1.02
2022-11-24T05:50:18.241Z,-0.84
2022-11-24T05:52:46.137Z,-0.91
2022-11-24T05:55:41.168Z,-0.87
2022-11-24T05:58:10.138Z,-0.86
2022-11-24T06:00:37.116Z,-1.00
2022-11-24T06:03:04.168Z,-0.95
2022-11-24T06:05:31.381Z,-0.93
2022-11-24T06:07:59.827Z,-0.91
2022-11-24T06:10:26.698Z,-1.03
2022-11-24T06:12:53.428Z,-1.02
2022-11-24T06:15:20.176Z,-1.04
2022-11-24T06:17:54.916Z,-0.90
2022-11-24T06:20:22.261Z,-0.87
2022-11-24T06:22:48.940Z,-0.85
2022-11-24T06:25:16.336Z,-0.96
2022-11-24T06:27:44.066Z,-0.85
2022-11-24T06:30:12.074Z,-0.85
2022-11-24T06:32:41.655Z,-0.72
2022-11-24T06:35:12.404Z,-0.61
2022-11-24T06:37:39.693Z,-0.56
2022-11-24T06:40:08.939Z,-0.55
2022-11-24T06:42:37.246Z,-0.61
2022-11-24T06:45:08.737Z,-0.54
2022-11-24T06:47:37.461Z,-0.52
2022-11-24T06:50:04.801Z,-0.46
2022-11-24T06:52:31.828Z,-0.52
2022-11-24T06:54:58.525Z,-0.42
2022-11-24T06:57:25.218Z,-0.45
2022-11-24T06:59:52.210Z,-0.50
2022-11-24T07:02:18.995Z,-0.51
2022-11-24T07:04:47.724Z,-0.46
2022-11-24T07:07:14.700Z,-0.60
2022-11-24T07:09:41.481Z,-0.37
2022-11-24T07:12:08.252Z,-0.30
2022-11-24T07:14:36.895Z,-0.33
2022-11-24T07:17:05.650Z,-0.37
2022-11-24T07:19:33.657Z,-0.19
2022-11-24T07:22:00.520Z,-0.17
2022-11-24T07:24:28.454Z,-0.14
2022-11-24T07:26:55.339Z,-0.11
2022-11-24T07:29:24.452Z,-0.26
2022-11-24T07:31:51.451Z,-0.19
2022-11-24T07:34:18.365Z,-0.25
2022-11-24T07:36:45.371Z,-0.08
2022-11-24T07:39:12.167Z,-0.02
2022-11-24T07:41:39.083Z,-0.10
2022-11-24T07:44:06.078Z,-0.04
2022-11-24T07:46:33.009Z,0.07
2022-11-24T07:48:59.921Z,0.08
2022-11-24T07:51:26.625Z,0.11
2022-11-24T07:53:53.504Z,0.11
2022-11-24T07:56:20.360Z,0.33
2022-11-24T07:58:51.335Z,0.32
2022-11-24T08:01:19.666Z,0.47
2022-11-24T08:03:47.612Z,0.69
2022-11-24T08:06:24.949Z,0.82
2022-11-24T08:08:52.160Z,0.63
2022-11-24T08:11:18.878Z,0.88
2022-11-24T08:13:46.064Z,1.20
2022-11-24T08:16:15.194Z,1.75
2022-11-24T08:18:42.772Z,1.72
2022-11-24T08:21:14.118Z,1.69
2022-11-24T08:23:41.613Z,1.57
2022-11-24T08:26:13.789Z,1.55
2022-11-24T08:28:40.747Z,1.24
2022-11-24T08:31:09.884Z,0.99
2022-11-24T08:33:37.161Z,1.15
2022-11-24T08:36:08.226Z,1.41
2022-11-24T08:38:35.443Z,1.52
2022-11-24T08:41:04.442Z,2.02
2022-11-24T08:43:31.251Z,2.19
2022-11-24T08:46:03.042Z,1.96
2022-11-24T08:48:30.318Z,1.87
2022-11-24T08:50:57.761Z,2.06
2022-11-24T08:53:25.079Z,2.22
2022-11-24T08:55:52.090Z,2.35
2022-11-24T08:58:18.910Z,2.69
2022-11-24T09:00:45.755Z,2.97
2022-11-24T09:03:12.680Z,3.15
2022-11-24T09:05:54.953Z,3.36
2022-11-24T09:08:25.088Z,3.25
2022-11-24T09:10:51.984Z,3.57
2022-11-24T09:13:18.884Z,3.76
2022-11-24T09:15:45.777Z,3.77
2022-11-24T09:18:12.717Z,3.80
2022-11-24T09:20:40.978Z,3.69
2022-11-24T09:23:07.681Z,3.74
2022-11-24T09:25:34.719Z,3.31
2022-11-24T09:28:01.567Z,3.30
2022-11-24T09:30:28.638Z,3.35
2022-11-24T09:32:56.970Z,3.54
2022-11-24T09:35:26.828Z,3.64
2022-11-24T09:37:53.628Z,3.99
2022-11-24T09:40:23.023Z,4.74
2022-11-24T09:43:36.543Z,5.04
2022-11-24T09:46:20.760Z,5.42
2022-11-24T09:48:51.261Z,6.25
2022-11-24T09:51:28.827Z,6.49
2022-11-24T09:54:02.862Z,7.04
2022-11-24T09:56:36.883Z,7.56
2022-11-24T10:02:00.856Z,7.94
2022-11-24T10:04:35.266Z,8.36
2022-11-24T10:07:17.153Z,8.28
2022-11-24T10:10:10.104Z,8.29
2022-11-24T10:13:06.098Z,8.06
2022-11-24T10:15:54.109Z,8.10
2022-11-24T10:18:26.932Z,8.63
2022-11-24T10:20:59.672Z,9.27
2022-11-24T10:23:41.324Z,9.72
2022-11-24T10:26:18.229Z,9.85
2022-11-24T10:28:54.261Z,10.23
2022-11-24T10:31:28.602Z,10.41
2022-11-24T10:33:57.869Z,10.74
2022-11-24T10:36:44.889Z,11.09
2022-11-24T10:39:28.813Z,11.29
2022-11-24T10:42:33.634Z,11.44
2022-11-24T10:45:10.392Z,11.63
2022-11-24T10:47:37.280Z,11.71
2022-11-24T10:50:21.415Z,11.56
2022-11-24T10:52:58.609Z,11.06
2022-11-24T10:55:25.533Z,11.03
2022-11-24T10:57:52.325Z,11.31
2022-11-24T11:00:19.084Z,10.48
2022-11-24T11:02:48.343Z,9.97
2022-11-24T11:05:32.579Z,10.21
2022-11-24T11:08:20.024Z,10.98
2022-11-24T11:10:52.085Z,11.23
2022-11-24T11:13:24.797Z,11.71
2022-11-24T11:15:52.297Z,12.06
2022-11-24T11:18:20.356Z,12.21
2022-11-24T11:21:05.540Z,12.62
2022-11-24T11:23:34.441Z,12.99
2022-11-24T11:26:24.087Z,13.23
2022-11-24T11:28:57.740Z,13.53
2022-11-24T11:31:24.751Z,13.77
2022-11-24T11:34:14.418Z,14.02
2022-11-24T11:36:48.101Z,14.16
2022-11-24T11:39:29.819Z,13.96
2022-11-24T11:42:45.350Z,13.64
2022-11-24T11:45:10.421Z,13.66
2022-11-24T11:48:00.940Z,13.94
2022-11-24T11:51:21.731Z,13.93
2022-11-24T11:54:03.747Z,14.05
2022-11-24T11:56:35.388Z,14.09
2022-11-24T11:59:06.292Z,14.33
2022-11-24T12:02:11.240Z,14.19
2022-11-24T12:05:00.496Z,14.04
2022-11-24T12:07:29.997Z,14.36
2022-11-24T12:10:20.088Z,14.57
2022-11-24T12:13:04.272Z,14.69
2022-11-24T12:15:50.227Z,14.65
2022-11-24T12:19:00.243Z,14.27
2022-11-24T12:21:41.985Z,14.50
2022-11-24T12:24:18.155Z,14.72
2022-11-24T12:27:03.417Z,14.74
2022-11-24T12:29:51.632Z,14.64
2022-11-24T12:32:36.910Z,14.66
2022-11-24T12:35:06.364Z,14.76
2022-11-24T12:37:46.616Z,15.00
2022-11-24T12:40:50.968Z,15.19
2022-11-24T12:43:32.719Z,15.09
2022-11-24T12:46:15.590Z,15.03
2022-11-24T12:49:05.167Z,15.13
2022-11-24T12:51:38.117Z,15.24
2022-11-24T12:54:10.782Z,15.41
2022-11-24T12:56:48.948Z,15.63
2022-11-24T12:59:21.891Z,15.79
2022-11-24T13:01:48.848Z,15.90
2022-11-24T13:04:34.471Z,15.94
2022-11-24T13:07:10.994Z,16.00
2022-11-24T13:09:38.196Z,15.98
2022-11-24T13:12:11.368Z,16.06
2022-11-24T13:14:42.091Z,16.27
2022-11-24T13:17:42.040Z,16.34
2022-11-24T13:20:19.567Z,16.49
2022-11-24T13:22:53.014Z,16.42
2022-11-24T13:25:26.368Z,16.55
2022-11-24T13:27:55.519Z,16.60
2022-11-24T13:30:34.446Z,16.46
2022-11-24T13:33:16.854Z,16.36
2022-11-24T13:36:02.446Z,16.19
2022-11-24T13:38:52.326Z,16.17
2022-11-24T13:41:37.085Z,16.24
2022-11-24T13:44:15.742Z,16.31
2022-11-24T13:47:06.371Z,16.33
2022-11-24T13:49:41.476Z,16.33
2022-11-24T13:52:36.462Z,16.44
2022-11-24T13:55:21.472Z,16.29
2022-11-24T13:57:54.388Z,16.24
2022-11-24T14:00:21.173Z,16.18
2022-11-24T14:02:49.187Z,16.17
2022-11-24T14:05:18.153Z,16.18
2022-11-24T14:07:47.265Z,16.01
2022-11-24T14:10:17.037Z,15.46
2022-11-24T14:12:44.018Z,15.13
2022-11-24T14:15:24.741Z,14.21
2022-11-24T14:17:51.989Z,13.62
2022-11-24T14:20:24.600Z,13.07
2022-11-24T14:22:51.820Z,12.73
2022-11-24T14:25:29.921Z,12.29
2022-11-24T14:27:57.427Z,12.12
2022-11-24T14:30:26.206Z,11.90
2022-11-24T14:33:03.480Z,11.79
2022-11-24T14:35:32.695Z,11.84
2022-11-24T14:38:02.338Z,11.61
2022-11-24T14:40:52.617Z,11.51
2022-11-24T14:43:21.623Z,11.24
2022-11-24T14:45:55.641Z,10.94
2022-11-24T14:48:31.701Z,10.62
2022-11-24T14:51:15.309Z,10.34
2022-11-24T14:53:43.710Z,10.08
2022-11-24T14:56:27.230Z,9.85
2022-11-24T14:58:55.578Z,9.63
2022-11-24T15:01:28.512Z,9.44
2022-11-24T15:04:26.616Z,9.14
2022-11-24T15:07:05.887Z,8.95
2022-11-24T15:09:47.759Z,8.82
2022-11-24T15:12:39.475Z,8.68
2022-11-24T15:15:15.439Z,8.56
2022-11-24T15:17:59.829Z,8.42
2022-11-24T15:20:31.976Z,8.28
2022-11-24T15:23:13.644Z,8.11
2022-11-24T15:25:40.401Z,7.91
2022-11-24T15:28:08.726Z,7.73
2022-11-24T15:30:36.968Z,7.55
2022-11-24T15:33:11.595Z,7.40
2022-11-24T15:35:38.947Z,7.21
2022-11-24T15:38:05.807Z,7.17
2022-11-24T15:40:32.781Z,7.04
2022-11-24T15:43:03.445Z,7.03
2022-11-24T15:45:34.621Z,6.94
2022-11-24T15:48:01.300Z,6.82
2022-11-24T15:50:28.081Z,6.73
2022-11-24T15:52:57.662Z,6.71
2022-11-24T15:55:27.048Z,6.64
2022-11-24T15:57:53.743Z,6.60
2022-11-24T16:00:23.196Z,6.48
2022-11-24T16:02:50.489Z,6.30
2022-11-24T16:05:18.148Z,6.07
2022-11-24T16:07:45.171Z,5.98
2022-11-24T16:10:30.461Z,5.75
2022-11-24T16:12:57.399Z,5.61
2022-11-24T16:15:24.216Z,5.47
2022-11-24T16:17:54.716Z,5.43
2022-11-24T16:20:21.511Z,5.44
2022-11-24T16:22:48.318Z,5.42
2022-11-24T16:25:15.312Z,5.48
2022-11-24T16:27:42.196Z,5.48
2022-11-24T16:30:11.049Z,5.47
2022-11-24T16:32:37.916Z,4.96
2022-11-24T16:35:05.205Z,4.93
2022-11-24T16:37:33.625Z,4.77
2022-11-24T16:40:02.642Z,4.73
2022-11-24T16:42:30.783Z,4.64
2022-11-24T16:44:57.625Z,4.62
2022-11-24T16:47:26.232Z,4.56
2022-11-24T16:49:53.441Z,4.49
2022-11-24T16:52:24.963Z,4.45
2022-11-24T16:54:55.835Z,4.42
2022-11-24T16:57:24.508Z,4.29
2022-11-24T16:59:51.584Z,4.31
2022-11-24T17:02:23.161Z,4.26
2022-11-24T17:04:54.407Z,4.18
2022-11-24T17:07:22.137Z,4.17
2022-11-24T17:09:50.392Z,4.25
2022-11-24T17:12:17.767Z,4.10
2022-11-24T17:14:58.058Z,3.91
2022-11-24T17:17:34.788Z,3.84
2022-11-24T17:20:02.559Z,3.82
2022-11-24T17:22:31.168Z,3.85
2022-11-24T17:24:59.543Z,3.92
2022-11-24T17:27:29.228Z,3.85
2022-11-24T17:29:57.340Z,3.69
2022-11-24T17:32:28.356Z,3.73
2022-11-24T17:34:57.603Z,3.75
2022-11-24T17:37:27.154Z,3.56
2022-11-24T17:40:20.695Z,3.47
2022-11-24T17:42:42.501Z,3.50
2022-11-24T17:45:10.909Z,3.46
2022-11-24T17:47:39.593Z,3.40
2022-11-24T17:50:08.040Z,3.40
2022-11-24T17:52:35.056Z,3.47
2022-11-24T17:55:02.625Z,3.64
2022-11-24T17:57:31.668Z,3.55
2022-11-24T18:00:01.850Z,3.53
2022-11-24T18:02:28.856Z,3.49
2022-11-24T18:04:56.399Z,3.45
2022-11-24T18:07:23.407Z,3.42
2022-11-24T18:09:51.335Z,3.42
2022-11-24T18:12:18.079Z,3.46
2022-11-24T18:14:44.842Z,3.47
2022-11-24T18:17:11.696Z,3.50
2022-11-24T18:19:38.405Z,3.52
2022-11-24T18:22:05.237Z,3.29
2022-11-24T18:24:32.031Z,3.15
2022-11-24T18:26:59.090Z,3.04
2022-11-24T18:29:25.823Z,2.97
2022-11-24T18:31:53.304Z,2.95
2022-11-24T18:34:21.427Z,2.86
2022-11-24T18:36:52.444Z,2.86
2022-11-24T18:39:21.298Z,2.83
2022-11-24T18:41:51.436Z,2.75
2022-11-24T18:44:20.233Z,2.60
2022-11-24T18:46:50.923Z,2.55
2022-11-24T18:49:22.476Z,2.46
2022-11-24T18:51:49.404Z,2.41
2022-11-24T18:54:18.269Z,2.50
2022-11-24T18:56:49.147Z,2.60
2022-11-24T18:59:18.917Z,2.36
2022-11-24T19:01:47.451Z,2.26
2022-11-24T19:04:20.192Z,2.34
2022-11-24T19:06:48.365Z,2.23
2022-11-24T19:09:18.479Z,2.30
2022-11-24T19:11:46.867Z,2.25
2022-11-24T19:14:16.638Z,2.05
2022-11-24T19:16:45.237Z,2.49
2022-11-24T19:19:12.875Z,2.58
2022-11-24T19:21:41.249Z,2.61
2022-11-24T19:24:10.592Z,2.58
2022-11-24T19:26:38.365Z,2.61
2022-11-24T19:29:06.797Z,2.45
2022-11-24T19:31:35.620Z,2.69
2022-11-24T19:34:03.574Z,2.55
2022-11-24T19:36:34.666Z,2.49
2022-11-24T19:39:05.255Z,2.43
2022-11-24T19:41:34.528Z,2.34
2022-11-24T19:44:03.929Z,2.27
2022-11-24T19:46:31.415Z,1.98
2022-11-24T19:49:03.125Z,2.12
2022-11-24T19:51:40.397Z,1.92
2022-11-24T19:54:10.627Z,1.95
2022-11-24T19:56:39.144Z,1.59
2022-11-24T19:59:06.984Z,1.82
2022-11-24T20:01:39.459Z,1.81
2022-11-24T20:04:09.759Z,1.82
2022-11-24T20:06:40.137Z,1.81
2022-11-24T20:09:10.786Z,1.81
2022-11-24T20:11:41.284Z,1.73
2022-11-24T20:14:10.965Z,1.55
2022-11-24T20:16:38.801Z,1.60
2022-11-24T20:19:08.924Z,1.60
2022-11-24T20:21:37.631Z,1.59
2022-11-24T20:24:11.891Z,1.57
2022-11-24T20:26:43.239Z,1.20
2022-11-24T20:29:12.193Z,1.48
2022-11-24T20:31:46.621Z,1.44
2022-11-24T20:34:13.726Z,1.44
2022-11-24T20:36:46.974Z,1.35
2022-11-24T20:39:16.978Z,1.41
2022-11-24T20:41:44.635Z,1.42
2022-11-24T20:44:15.516Z,1.43
2022-11-24T20:46:44.306Z,1.19
2022-11-24T20:49:14.053Z,1.21
2022-11-24T20:51:47.115Z,1.41
2022-11-24T20:54:16.275Z,1.22
2022-11-24T20:56:47.714Z,1.13
2022-11-24T20:59:22.010Z,0.93
2022-11-24T21:01:52.498Z,0.82
2022-11-24T21:04:23.030Z,0.19
2022-11-24T21:06:56.372Z,0.75
2022-11-24T21:09:25.483Z,0.65
2022-11-24T21:11:53.047Z,0.55
2022-11-24T21:14:21.019Z,0.54
2022-11-24T21:16:48.529Z,0.46
2022-11-24T21:19:20.405Z,0.53
2022-11-24T21:21:48.976Z,0.90
2022-11-24T21:24:18.770Z,0.83
2022-11-24T21:26:47.896Z,0.61
2022-11-24T21:29:22.905Z,0.63
2022-11-24T21:31:53.289Z,0.52
2022-11-24T21:34:22.356Z,0.63
2022-11-24T21:36:52.833Z,1.22
2022-11-24T21:39:20.861Z,1.25
2022-11-24T21:41:49.900Z,0.88
2022-11-24T21:44:19.611Z,0.38
2022-11-24T21:46:52.702Z,0.18
2022-11-24T21:49:24.069Z,0.49
2022-11-24T21:51:55.561Z,0.00
2022-11-24T21:54:25.304Z,0.52
2022-11-24T21:56:53.957Z,0.50
2022-11-24T21:59:22.992Z,0.29
2022-11-24T22:01:50.991Z,0.58
2022-11-24T22:04:19.591Z,0.10
2022-11-24T22:06:49.196Z,0.43
2022-11-24T22:09:18.726Z,0.41
2022-11-24T22:11:55.266Z,0.02
2022-11-24T22:14:23.599Z,0.40
2022-11-24T22:16:52.551Z,0.46
2022-11-24T22:19:21.364Z,0.50
2022-11-24T22:21:50.030Z,0.44
2022-11-24T22:24:21.745Z,-0.34
2022-11-24T22:26:55.469Z,0.11
2022-11-24T22:29:23.792Z,0.05
2022-11-24T22:31:55.174Z,-0.24
2022-11-24T22:34:23.995Z,-0.14
2022-11-24T22:36:53.823Z,-0.33
2022-11-24T22:39:22.767Z,-0.10
2022-11-24T22:41:50.525Z,-0.19
2022-11-24T22:44:18.666Z,-0.06
2022-11-24T22:46:47.047Z,-0.09
2022-11-24T22:49:15.081Z,0.10
2022-11-24T22:51:44.132Z,-0.24
2022-11-24T22:54:15.333Z,-0.43
2022-11-24T22:56:42.679Z,-0.41
2022-11-24T22:59:09.420Z,-0.38
2022-11-24T23:01:36.208Z,-0.49
2022-11-24T23:04:03.941Z,-0.52
2022-11-24T23:06:32.694Z,-0.16
2022-11-24T23:09:01.191Z,0.07
2022-11-24T23:11:35.150Z,-0.17
2022-11-24T23:14:04.580Z,-0.14
2022-11-24T23:16:31.346Z,0.01
2022-11-24T23:18:58.372Z,-0.12
2022-11-24T23:21:28.384Z,-0.45
2022-11-24T23:23:56.009Z,-0.70
2022-11-24T23:26:28.306Z,-0.88
2022-11-24T23:28:55.195Z,-0.90
2022-11-24T23:31:29.819Z,-0.55
2022-11-24T23:34:01.280Z,-0.56
2022-11-24T23:36:29.421Z,-0.27
2022-11-24T23:38:56.617Z,-0.36
2022-11-24T23:41:24.849Z,-0.23
2022-11-24T23:43:52.724Z,-0.37
2022-11-24T23:46:24.511Z,-0.36
2022-11-24T23:48:53.298Z,-0.36
2022-11-24T23:51:22.940Z,-0.24
2022-11-24T23:53:50.555Z,-0.37
2022-11-24T23:56:25.740Z,-0.06
2022-11-24T23:58:52.768Z,-0.03
